Time;durP1;ratioP1;P1;durP2;ratioP2;P2;SDS_P1;SDS_P2;PMS_P1;PMS_P2;Temp;Humidity;BMP_temperature;BMP_pressure;BME280_temperature;BME280_humidity;BME280_pressure;Samples;Min_cycle;Max_cycle;Signal;HPM_P1;HPM_P2
2021/06/19 00:01:34;;;;;;;4.75;4.32;;;;;;;16.47;78.86;96272.19;5115351;28;20106;-61
2021/06/19 00:04:00;;;;;;;8.82;3.95;;;;;;;16.48;78.88;96279.16;5115297;28;20028;-62
2021/06/19 00:06:25;;;;;;;5.60;5.10;;;;;;;16.42;78.68;96288.31;5115308;28;20028;-60
2021/06/19 00:08:51;;;;;;;9.55;4.03;;;;;;;16.44;78.65;96293.50;5115341;28;20027;-60
2021/06/19 00:11:17;;;;;;;7.93;3.60;;;;;;;16.45;78.46;96284.63;5114225;28;20035;-60
2021/06/19 00:13:42;;;;;;;11.23;3.53;;;;;;;16.41;78.20;96280.50;5115170;28;20081;-60
2021/06/19 00:16:08;;;;;;;8.70;4.05;;;;;;;16.38;78.03;96280.69;5114882;28;20047;-62
2021/06/19 00:18:34;;;;;;;10.23;4.25;;;;;;;16.34;78.08;96277.41;5114960;28;20034;-62
2021/06/19 00:21:00;;;;;;;17.25;4.28;;;;;;;16.30;77.79;96270.63;5114920;28;20129;-60
2021/06/19 00:23:26;;;;;;;9.10;4.65;;;;;;;16.15;78.46;96275.13;5114975;28;20540;-63
2021/06/19 00:25:51;;;;;;;7.95;3.78;;;;;;;16.13;78.64;96277.00;5114920;28;20030;-62
2021/06/19 00:28:17;;;;;;;6.22;3.92;;;;;;;16.07;78.98;96277.41;5114807;28;20019;-63
2021/06/19 00:30:43;;;;;;;16.27;4.60;;;;;;;16.09;79.07;96271.09;5114928;28;20111;-63
2021/06/19 00:33:08;;;;;;;9.35;4.03;;;;;;;16.12;78.67;96270.03;5114665;28;20390;-62
2021/06/19 00:35:34;;;;;;;5.38;4.32;;;;;;;16.13;78.33;96269.09;5114735;28;20027;-64
2021/06/19 00:38:00;;;;;;;14.07;3.53;;;;;;;16.16;78.32;96255.69;5114611;28;20020;-60
2021/06/19 00:40:26;;;;;;;7.68;3.63;;;;;;;16.15;77.77;96264.56;5096637;28;20076;-60
2021/06/19 00:42:59;;;;;;;8.73;3.40;;;;;;;16.12;77.58;96262.13;5114494;28;20043;-60
2021/06/19 00:45:27;;;;;;;5.35;4.18;;;;;;;16.11;76.98;96269.22;5114677;28;20100;-61
2021/06/19 00:47:53;;;;;;;8.35;3.55;;;;;;;16.07;77.42;96262.41;5114565;28;20020;-62
2021/06/19 00:50:20;;;;;;;13.48;4.03;;;;;;;16.03;77.54;96263.56;5114424;28;20461;-61
2021/06/19 00:52:46;;;;;;;7.90;3.47;;;;;;;15.97;77.72;96256.03;5114286;28;20541;-59
2021/06/19 00:55:13;;;;;;;10.38;4.35;;;;;;;15.97;77.66;96261.31;5114415;28;20069;-62
2021/06/19 00:57:39;;;;;;;10.25;3.38;;;;;;;15.93;78.01;96263.31;5114418;28;20106;-62
2021/06/19 01:00:07;;;;;;;9.25;4.15;;;;;;;15.76;79.32;96254.66;5114279;28;20030;-61
2021/06/19 01:02:33;;;;;;;5.50;4.65;;;;;;;15.81;80.12;96256.16;5095931;28;20144;-60
2021/06/19 01:04:58;;;;;;;7.03;3.75;;;;;;;15.88;79.91;96260.09;5114218;28;20485;-59
2021/06/19 01:07:24;;;;;;;4.60;3.40;;;;;;;15.86;80.14;96256.72;5114099;28;20481;-60
2021/06/19 01:09:50;;;;;;;9.77;3.92;;;;;;;15.85;80.46;96258.50;5114177;28;20047;-62
2021/06/19 01:12:23;;;;;;;6.43;4.47;;;;;;;15.77;80.81;96256.34;5114082;28;20473;-63
2021/06/19 01:14:50;;;;;;;10.25;3.72;;;;;;;15.76;80.79;96254.66;5114029;28;20028;-62
2021/06/19 01:17:17;;;;;;;13.75;4.07;;;;;;;15.81;81.07;96250.88;5113915;28;20126;-60
2021/06/19 01:19:43;;;;;;;7.78;3.58;;;;;;;15.90;80.73;96259.03;5113943;28;20030;-62
2021/06/19 01:22:10;;;;;;;15.40;4.18;;;;;;;15.95;80.30;96263.19;5113654;28;20035;-61
2021/06/19 01:24:35;;;;;;;10.43;3.92;;;;;;;16.02;80.24;96260.06;5113882;28;20023;-62
2021/06/19 01:27:01;;;;;;;10.80;4.65;;;;;;;16.02;80.00;96249.53;5113871;28;20020;-63
2021/06/19 01:29:26;;;;;;;12.93;4.70;;;;;;;16.02;79.86;96251.34;5113850;28;20020;-63
2021/06/19 01:31:53;;;;;;;6.20;4.40;;;;;;;16.00;79.60;96248.81;5113887;28;20031;-61
2021/06/19 01:34:18;;;;;;;9.95;4.30;;;;;;;16.03;79.30;96258.28;5113728;28;20023;-59
2021/06/19 01:36:44;;;;;;;6.57;4.28;;;;;;;15.91;79.68;96252.00;5113628;28;20477;-62
2021/06/19 01:39:09;;;;;;;10.38;3.88;;;;;;;15.98;79.34;96260.41;5113578;28;20126;-61
2021/06/19 01:41:35;;;;;;;6.68;3.60;;;;;;;15.92;79.04;96256.31;5113533;28;20027;-60
2021/06/19 01:44:05;;;;;;;11.68;5.22;;;;;;;15.83;79.17;96260.38;5113749;28;20015;-60
2021/06/19 01:46:33;;;;;;;7.82;3.60;;;;;;;15.81;79.60;96261.44;5113694;28;20035;-62
2021/06/19 01:48:59;;;;;;;11.32;3.65;;;;;;;15.85;79.20;96262.94;5113457;28;20085;-64
2021/06/19 01:51:25;;;;;;;8.18;4.03;;;;;;;15.84;78.76;96262.09;5113586;28;20035;-63
2021/06/19 01:53:53;;;;;;;9.63;3.33;;;;;;;15.85;78.40;96263.78;5113624;28;20030;-61
2021/06/19 01:56:20;;;;;;;12.40;4.10;;;;;;;15.82;78.38;96269.25;5113661;28;20107;-60
2021/06/19 01:58:46;;;;;;;6.65;4.72;;;;;;;15.77;78.49;96268.69;5113415;28;20063;-60
2021/06/19 02:01:14;;;;;;;8.45;4.68;;;;;;;15.73;79.10;96267.19;5113498;28;20059;-62
2021/06/19 02:03:41;;;;;;;8.02;3.90;;;;;;;15.72;78.91;96262.88;5113425;28;20019;-62
2021/06/19 02:06:07;;;;;;;14.80;4.00;;;;;;;15.66;78.92;96259.66;5113407;28;20020;-60
2021/06/19 02:08:34;;;;;;;8.70;3.80;;;;;;;15.61;79.19;96260.91;5113452;28;20374;-61
2021/06/19 02:11:00;;;;;;;12.95;4.80;;;;;;;15.61;79.25;96264.41;5113319;28;20032;-60
2021/06/19 02:13:27;;;;;;;9.27;4.18;;;;;;;15.63;79.38;96262.50;5113267;28;20023;-61
2021/06/19 02:15:54;;;;;;;8.02;3.72;;;;;;;15.64;78.98;96261.56;5113021;28;20047;-62
2021/06/19 02:18:19;;;;;;;6.63;3.05;;;;;;;15.63;78.91;96254.59;5113272;28;20469;-59
2021/06/19 02:20:48;;;;;;;7.50;3.67;;;;;;;15.64;78.95;96252.81;5113238;28;20080;-63
2021/06/19 02:23:14;;;;;;;6.97;3.33;;;;;;;15.64;79.36;96253.66;5113193;28;20028;-62
2021/06/19 02:25:39;;;;;;;10.05;3.75;;;;;;;15.64;79.60;96248.38;5113085;28;20019;-63
2021/06/19 02:28:10;;;;;;;4.93;3.40;;;;;;;15.62;79.58;96233.63;5113291;28;20076;-63
2021/06/19 02:30:46;;;;;;;10.48;3.65;;;;;;;15.64;79.67;96236.97;5113286;28;20027;-61
2021/06/19 02:33:13;;;;;;;11.15;3.85;;;;;;;15.61;80.25;96237.19;5113165;28;20031;-61
2021/06/19 02:35:41;;;;;;;11.70;3.47;;;;;;;15.68;80.03;96241.09;5116263;28;20355;-63
2021/06/19 02:38:09;;;;;;;6.28;3.72;;;;;;;15.71;79.66;96240.91;5117074;28;20019;-63
2021/06/19 02:40:38;;;;;;;5.57;4.18;;;;;;;15.78;79.52;96241.38;5116937;28;20016;-60
2021/06/19 02:43:04;;;;;;;8.95;3.90;;;;;;;15.77;79.27;96239.69;5116901;28;20028;-63
2021/06/19 02:45:30;;;;;;;7.57;2.80;;;;;;;15.73;78.91;96246.94;5116999;28;20374;-63
2021/06/19 02:47:58;;;;;;;7.40;3.08;;;;;;;15.75;78.56;96238.94;5116867;28;20385;-61
2021/06/19 02:50:34;;;;;;;10.73;3.05;;;;;;;15.67;78.28;96239.44;5116795;28;20598;-62
2021/06/19 02:53:01;;;;;;;5.55;4.72;;;;;;;15.60;78.49;96241.63;5116843;28;20106;-60
2021/06/19 02:55:32;;;;;;;7.60;4.10;;;;;;;15.49;79.33;96244.06;5116584;28;20019;-61
2021/06/19 02:57:58;;;;;;;4.50;4.10;;;;;;;15.38;80.34;96250.03;5116749;28;20024;-63
2021/06/19 03:00:24;;;;;;;6.88;5.07;;;;;;;15.40;80.49;96248.13;5116576;28;20019;-60
2021/06/19 03:02:50;;;;;;;7.88;3.42;;;;;;;15.48;79.69;96245.03;5116652;28;20114;-60
2021/06/19 03:05:21;;;;;;;5.88;3.22;;;;;;;15.43;79.30;96236.53;5116506;28;20095;-62
2021/06/19 03:07:48;;;;;;;7.78;3.20;;;;;;;15.42;78.76;96233.09;5116629;28;20016;-63
2021/06/19 03:10:16;;;;;;;6.05;3.40;;;;;;;15.39;78.40;96223.56;5116438;28;20109;-63
2021/06/19 03:12:42;;;;;;;5.22;3.25;;;;;;;15.31;79.12;96225.84;5116310;28;20160;-63
2021/06/19 03:15:09;;;;;;;5.43;2.70;;;;;;;15.26;79.11;96226.13;5116389;28;20098;-59
2021/06/19 03:17:35;;;;;;;6.20;4.00;;;;;;;15.16;78.77;96223.22;5116074;28;20043;-62
2021/06/19 03:20:02;;;;;;;12.60;3.08;;;;;;;15.16;78.74;96225.00;5116252;28;20357;-64
2021/06/19 03:22:27;;;;;;;6.93;3.40;;;;;;;15.18;78.84;96225.75;5116134;28;20095;-64
2021/06/19 03:24:53;;;;;;;17.52;4.30;;;;;;;15.16;78.95;96228.47;5116156;28;20026;-62
2021/06/19 03:27:18;;;;;;;3.72;2.88;;;;;;;15.23;78.50;96228.94;5116030;28;20012;-62
2021/06/19 03:29:44;;;;;;;13.07;3.75;;;;;;;15.25;78.76;96228.84;5116024;28;20081;-62
2021/06/19 03:32:11;;;;;;;10.48;3.42;;;;;;;15.23;78.93;96230.75;5115973;28;20024;-61
2021/06/19 03:34:37;;;;;;;8.13;3.50;;;;;;;15.30;78.72;96232.06;5097714;28;20023;-63
2021/06/19 03:37:04;;;;;;;10.80;3.15;;;;;;;15.38;78.17;96228.94;5115814;28;20122;-63
2021/06/19 03:39:32;;;;;;;9.45;3.92;;;;;;;15.43;78.32;96229.50;5115777;28;20034;-62
2021/06/19 03:41:58;;;;;;;12.65;3.13;;;;;;;15.52;77.95;96228.91;5115777;28;20028;-64
2021/06/19 03:44:24;;;;;;;5.82;2.70;;;;;;;15.61;77.97;96226.63;5115804;28;20069;-61
2021/06/19 03:46:50;;;;;;;5.38;3.05;;;;;;;15.76;78.01;96228.31;5115690;28;20483;-63
2021/06/19 03:49:17;;;;;;;4.93;3.03;;;;;;;15.97;77.81;96225.25;5115617;28;20026;-64
2021/06/19 03:51:42;;;;;;;6.75;3.25;;;;;;;16.17;77.28;96220.47;5115687;28;20063;-63
2021/06/19 03:54:08;;;;;;;4.85;2.40;;;;;;;16.57;76.61;96232.81;5115564;28;20092;-64
2021/06/19 03:56:33;;;;;;;3.33;2.90;;;;;;;16.80;75.66;96230.41;5115600;28;20024;-62
2021/06/19 03:58:59;;;;;;;4.35;2.60;;;;;;;16.89;75.24;96231.56;5115474;28;20537;-63
2021/06/19 04:01:25;;;;;;;9.95;3.17;;;;;;;16.96;74.90;96230.19;5115318;28;20019;-61
2021/06/19 04:03:50;;;;;;;6.63;2.50;;;;;;;16.97;74.57;96233.66;5115337;28;20389;-61
2021/06/19 04:06:16;;;;;;;9.27;3.63;;;;;;;16.96;74.85;96240.75;5115507;28;20051;-61
2021/06/19 04:08:42;;;;;;;5.35;3.70;;;;;;;16.89;74.95;96229.75;5115220;28;20110;-61
2021/06/19 04:11:07;;;;;;;7.72;4.05;;;;;;;16.81;75.09;96232.09;5115311;28;20084;-63
2021/06/19 04:13:33;;;;;;;5.32;3.03;;;;;;;16.71;75.29;96231.03;5115190;28;20020;-61
2021/06/19 04:15:59;;;;;;;5.68;3.95;;;;;;;16.66;75.46;96224.25;5114928;28;20051;-61
2021/06/19 04:18:24;;;;;;;8.02;3.17;;;;;;;16.68;75.94;96230.28;5115154;28;20086;-62
2021/06/19 04:20:50;;;;;;;6.88;3.40;;;;;;;16.66;76.23;96224.25;5115046;28;20026;-64
2021/06/19 04:23:15;;;;;;;5.50;3.25;;;;;;;16.67;76.13;96233.00;5115150;28;20019;-63
2021/06/19 04:25:41;;;;;;;4.95;3.10;;;;;;;16.65;76.30;96225.19;5114864;28;20027;-64
2021/06/19 04:28:07;;;;;;;6.35;3.60;;;;;;;16.65;76.62;96224.38;5114962;28;20064;-62
2021/06/19 04:30:33;;;;;;;3.60;3.30;;;;;;;16.70;76.78;96226.69;5114844;28;20419;-60
2021/06/19 04:32:59;;;;;;;5.53;3.60;;;;;;;16.74;77.39;96221.09;5114896;28;20020;-63
2021/06/19 04:35:26;;;;;;;6.82;3.47;;;;;;;16.78;77.20;96222.59;5114847;28;20103;-62
2021/06/19 04:37:52;;;;;;;5.20;3.90;;;;;;;16.85;77.56;96230.06;5114854;28;20019;-62
2021/06/19 04:40:32;;;;;;;11.48;3.88;;;;;;;16.92;78.00;96234.81;5114780;28;20019;-60
2021/06/19 04:43:04;;;;;;;5.30;3.43;;;;;;;17.01;77.67;96233.34;5114761;28;20524;-62
2021/06/19 04:45:30;;;;;;;6.90;3.95;;;;;;;17.09;78.03;96238.13;5114817;28;20343;-62
2021/06/19 04:47:57;;;;;;;8.30;3.58;;;;;;;17.27;78.37;96237.81;5114494;28;20460;-61
2021/06/19 04:50:22;;;;;;;9.35;3.42;;;;;;;17.48;78.06;96239.88;5114450;28;20462;-62
2021/06/19 04:52:48;;;;;;;9.15;3.70;;;;;;;17.55;78.25;96239.34;5096511;28;20081;-63
2021/06/19 04:55:16;;;;;;;4.40;3.50;;;;;;;17.51;76.79;96237.88;5114560;28;20373;-65
2021/06/19 04:57:43;;;;;;;7.10;3.58;;;;;;;17.55;76.07;96233.22;5113900;28;20034;-64
2021/06/19 05:00:12;;;;;;;4.22;3.35;;;;;;;17.65;76.28;96238.69;5114346;28;20504;-61
2021/06/19 05:02:38;;;;;;;6.75;3.40;;;;;;;17.74;76.14;96235.41;5114063;28;20028;-62
2021/06/19 05:05:05;;;;;;;4.68;3.60;;;;;;;17.78;76.88;96238.66;5114148;28;20019;-65
2021/06/19 05:07:33;;;;;;;7.57;3.70;;;;;;;17.87;77.45;96235.34;5114203;28;20036;-62
2021/06/19 05:09:58;;;;;;;7.20;3.97;;;;;;;17.99;78.12;96235.41;5114335;28;20024;-61
2021/06/19 05:12:24;;;;;;;4.32;3.90;;;;;;;18.08;79.02;96229.44;5114061;28;20492;-62
2021/06/19 05:14:49;;;;;;;5.95;3.55;;;;;;;18.14;78.27;96234.31;5114062;28;20016;-64
2021/06/19 05:17:15;;;;;;;4.78;4.20;;;;;;;18.24;77.35;96241.59;5113942;28;20043;-62
2021/06/19 05:19:40;;;;;;;6.78;4.82;;;;;;;18.29;76.87;96232.34;5114019;28;20031;-61
2021/06/19 05:22:07;;;;;;;12.38;4.70;;;;;;;18.38;77.77;96244.03;5113943;28;20028;-65
2021/06/19 05:24:34;;;;;;;6.75;4.40;;;;;;;18.47;78.30;96250.44;5113824;28;20105;-62
2021/06/19 05:27:00;;;;;;;4.78;4.25;;;;;;;18.55;76.96;96244.59;5113773;28;20012;-64
2021/06/19 05:29:26;;;;;;;7.97;4.20;;;;;;;18.59;75.86;96245.19;5113770;28;20515;-63
2021/06/19 05:31:51;;;;;;;6.65;3.80;;;;;;;18.61;77.07;96249.44;5113940;28;20028;-61
2021/06/19 05:34:17;;;;;;;5.65;3.85;;;;;;;18.68;76.91;96250.66;5113794;28;20381;-62
2021/06/19 05:36:42;;;;;;;4.93;3.97;;;;;;;18.77;77.64;96243.81;5113704;28;20034;-63
2021/06/19 05:39:08;;;;;;;5.53;3.20;;;;;;;18.84;75.46;96248.63;5113815;28;20019;-63
2021/06/19 05:41:34;;;;;;;6.95;4.28;;;;;;;18.93;76.25;96247.91;5113518;28;20032;-62
2021/06/19 05:43:59;;;;;;;4.57;4.07;;;;;;;19.00;77.59;96257.09;5113574;28;20023;-65
2021/06/19 05:46:25;;;;;;;4.30;3.60;;;;;;;19.11;76.70;96255.47;5113734;28;20024;-63
2021/06/19 05:48:56;;;;;;;7.00;3.55;;;;;;;19.23;76.63;96259.78;5113707;28;20046;-65
2021/06/19 05:51:21;;;;;;;3.58;3.08;;;;;;;19.28;76.05;96257.63;5113524;28;20020;-63
2021/06/19 05:53:47;;;;;;;7.80;3.13;;;;;;;19.25;74.01;96259.66;5113450;28;20022;-63
2021/06/19 05:56:12;;;;;;;3.67;3.08;;;;;;;19.17;71.29;96262.91;5113502;28;20023;-62
2021/06/19 05:58:38;;;;;;;4.03;3.22;;;;;;;19.23;71.45;96264.28;5113538;28;20044;-63
2021/06/19 06:01:03;;;;;;;5.57;3.70;;;;;;;19.30;71.13;96271.59;5113314;28;20080;-62
2021/06/19 06:03:29;;;;;;;8.45;3.30;;;;;;;19.45;73.75;96263.44;5113423;28;20051;-63
2021/06/19 06:05:54;;;;;;;6.63;2.97;;;;;;;19.61;73.36;96263.06;5113553;28;20030;-65
2021/06/19 06:08:20;;;;;;;3.38;2.80;;;;;;;19.71;70.42;96273.75;5113421;28;20462;-63
2021/06/19 06:10:45;;;;;;;6.95;2.80;;;;;;;19.81;72.35;96277.38;5116821;28;20118;-62
2021/06/19 06:13:11;;;;;;;6.18;2.58;;;;;;;19.80;69.41;96288.97;5117662;28;20093;-64
2021/06/19 06:15:37;;;;;;;3.35;2.72;;;;;;;19.85;69.14;96287.75;5117284;28;20096;-62
2021/06/19 06:18:02;;;;;;;3.88;3.13;;;;;;;19.92;70.36;96291.59;5117556;28;20046;-63
2021/06/19 06:20:28;;;;;;;3.25;2.90;;;;;;;19.96;70.36;96287.75;5117545;28;20047;-65
2021/06/19 06:22:53;;;;;;;6.85;2.90;;;;;;;19.85;70.54;96299.22;5117328;28;20027;-65
2021/06/19 06:25:19;;;;;;;3.22;2.95;;;;;;;19.87;69.94;96289.31;5117330;28;20016;-64
2021/06/19 06:27:44;;;;;;;6.93;3.70;;;;;;;19.92;72.01;96287.13;5117472;28;20023;-65
2021/06/19 06:30:11;;;;;;;6.53;3.63;;;;;;;19.93;71.96;96302.09;5117226;28;20047;-62
2021/06/19 06:32:36;;;;;;;4.00;3.60;;;;;;;19.91;73.17;96300.53;5117190;28;20020;-64
2021/06/19 06:35:05;;;;;;;3.50;3.20;;;;;;;19.98;72.73;96284.97;5117191;28;20046;-63
2021/06/19 06:37:31;;;;;;;6.47;3.55;;;;;;;19.99;73.72;96287.50;5117085;28;20028;-62
2021/06/19 06:39:57;;;;;;;5.57;3.25;;;;;;;20.14;74.25;96292.56;5117020;28;20024;-63
2021/06/19 06:42:22;;;;;;;4.63;2.70;;;;;;;20.10;70.45;96286.66;5117037;28;20031;-64
2021/06/19 06:44:48;;;;;;;3.83;2.40;;;;;;;20.20;70.00;96292.91;5116962;28;20020;-64
2021/06/19 06:47:13;;;;;;;2.65;2.28;;;;;;;20.33;70.02;96287.44;5116856;28;20026;-63
2021/06/19 06:49:39;;;;;;;3.72;2.30;;;;;;;20.35;69.62;96289.97;5116808;28;20035;-65
2021/06/19 06:52:05;;;;;;;2.83;2.17;;;;;;;20.45;69.92;96285.59;5116884;28;20028;-64
2021/06/19 06:54:38;;;;;;;4.00;2.55;;;;;;;20.64;69.79;96283.19;5116724;28;20042;-65
2021/06/19 06:57:08;;;;;;;3.28;2.40;;;;;;;20.77;69.94;96283.88;5116792;28;20024;-64
2021/06/19 06:59:34;;;;;;;4.25;2.30;;;;;;;20.89;68.34;96286.47;5116939;28;20106;-62
2021/06/19 07:02:00;;;;;;;4.13;2.17;;;;;;;20.84;68.39;96290.34;5116572;28;20392;-64
2021/06/19 07:04:26;;;;;;;2.00;1.90;;;;;;;20.79;68.38;96289.91;5116495;28;20016;-64
2021/06/19 07:06:51;;;;;;;3.78;2.00;;;;;;;20.73;67.99;96287.75;5116451;28;20115;-63
2021/06/19 07:09:17;;;;;;;2.40;2.00;;;;;;;20.71;69.75;96295.03;5116624;28;20027;-64
2021/06/19 07:11:43;;;;;;;2.50;2.20;;;;;;;20.66;69.75;96289.25;5116501;28;20499;-64
2021/06/19 07:14:08;;;;;;;4.45;2.30;;;;;;;20.70;68.19;96293.31;5116433;28;20055;-61
2021/06/19 07:16:34;;;;;;;3.13;1.75;;;;;;;20.69;68.22;96289.84;5115397;28;20489;-63
2021/06/19 07:18:59;;;;;;;2.28;2.00;;;;;;;20.53;68.92;96298.22;5115169;28;20047;-64
2021/06/19 07:21:27;;;;;;;10.35;2.08;;;;;;;20.41;68.17;96296.59;5114638;28;20028;-64
2021/06/19 07:23:53;;;;;;;5.47;1.85;;;;;;;20.37;68.23;96290.69;5115055;28;20526;-62
2021/06/19 07:26:19;;;;;;;2.22;2.00;;;;;;;20.41;68.52;96278.81;5115055;28;20433;-62
2021/06/19 07:28:45;;;;;;;2.60;2.03;;;;;;;20.51;69.28;96280.72;5114944;28;20103;-65
2021/06/19 07:31:12;;;;;;;5.18;1.80;;;;;;;20.61;69.07;96278.13;5114836;28;20020;-62
2021/06/19 07:33:37;;;;;;;2.50;1.73;;;;;;;20.82;69.48;96271.03;5114895;28;20016;-64
2021/06/19 07:36:04;;;;;;;2.83;1.75;;;;;;;20.90;69.64;96281.06;5114897;28;20576;-65
2021/06/19 07:38:30;;;;;;;2.30;1.38;;;;;;;20.94;67.64;96274.50;5114944;28;20376;-64
2021/06/19 07:40:57;;;;;;;1.42;1.33;;;;;;;20.96;68.65;96269.06;5114703;28;20024;-62
2021/06/19 07:43:23;;;;;;;1.15;1.15;;;;;;;21.03;68.25;96274.69;5114803;28;20051;-62
2021/06/19 07:45:50;;;;;;;1.48;1.10;;;;;;;20.94;67.57;96277.16;5114706;28;20015;-63
2021/06/19 07:48:15;;;;;;;1.65;1.38;;;;;;;20.76;68.08;96265.38;5114730;28;20023;-65
2021/06/19 07:50:41;;;;;;;1.30;1.20;;;;;;;20.71;67.62;96277.25;5114699;28;20578;-63
2021/06/19 07:53:07;;;;;;;2.30;1.30;;;;;;;20.57;67.89;96274.91;5114684;28;20393;-63
2021/06/19 07:55:33;;;;;;;3.80;1.33;;;;;;;20.61;69.15;96278.13;5114580;28;20058;-63
2021/06/19 07:57:59;;;;;;;1.58;1.48;;;;;;;20.68;68.78;96266.06;5114614;28;20684;-63
2021/06/19 08:00:25;;;;;;;1.65;1.30;;;;;;;20.77;67.81;96269.75;5114438;28;20514;-64
2021/06/19 08:02:52;;;;;;;1.65;1.52;;;;;;;20.84;69.27;96265.59;5114369;28;20035;-63
2021/06/19 08:05:18;;;;;;;4.60;2.03;;;;;;;20.84;67.98;96268.25;5114325;28;20054;-62
2021/06/19 08:07:43;;;;;;;1.55;1.45;;;;;;;20.93;69.48;96262.19;5114396;28;20094;-61
2021/06/19 08:10:10;;;;;;;3.80;1.50;;;;;;;20.77;67.26;96267.09;5114405;28;20099;-65
2021/06/19 08:12:37;;;;;;;1.40;1.30;;;;;;;20.82;68.52;96268.38;5114394;28;20037;-61
2021/06/19 08:15:05;;;;;;;2.13;1.50;;;;;;;20.87;69.10;96261.84;5114154;28;20110;-65
2021/06/19 08:17:31;;;;;;;2.22;1.48;;;;;;;20.93;69.16;96270.19;5107867;28;198140;-62
2021/06/19 08:19:57;;;;;;;1.77;1.35;;;;;;;21.03;68.93;96259.59;5115176;28;20031;-63
2021/06/19 08:22:23;;;;;;;2.13;1.50;;;;;;;21.03;69.60;96264.06;5115131;28;20392;-65
2021/06/19 08:24:48;;;;;;;2.72;1.17;;;;;;;20.96;67.76;96256.59;5115112;28;20051;-64
2021/06/19 08:27:14;;;;;;;1.90;1.00;;;;;;;21.09;68.66;96263.53;5114908;28;20023;-62
2021/06/19 08:29:41;;;;;;;1.83;1.00;;;;;;;21.20;68.16;96254.66;5114963;28;20016;-66
2021/06/19 08:32:08;;;;;;;0.88;0.80;;;;;;;21.32;66.81;96258.06;5114025;28;20098;-64
2021/06/19 08:34:34;;;;;;;4.80;1.20;;;;;;;21.49;67.24;96255.75;5114957;28;20457;-60
2021/06/19 08:37:00;;;;;;;0.93;0.82;;;;;;;21.48;67.30;96268.22;5114935;28;20020;-64
2021/06/19 08:39:25;;;;;;;0.80;0.65;;;;;;;21.46;67.54;96259.50;5114794;28;20504;-64
2021/06/19 08:41:56;;;;;;;1.27;0.70;;;;;;;21.48;66.53;96268.22;5114520;28;20027;-62
2021/06/19 08:44:24;;;;;;;3.30;0.50;;;;;;;21.53;67.49;96259.84;5114578;28;20020;-64
2021/06/19 08:46:51;;;;;;;2.00;0.50;;;;;;;21.48;66.26;96265.56;5114630;28;20028;-60
2021/06/19 08:49:17;;;;;;;0.90;0.70;;;;;;;21.45;67.62;96271.13;5114564;28;20023;-63
2021/06/19 08:51:44;;;;;;;1.80;0.43;;;;;;;21.44;67.39;96269.47;5114617;28;20030;-63
2021/06/19 08:54:09;;;;;;;0.60;0.43;;;;;;;21.38;67.45;96275.31;5114546;28;20473;-63
2021/06/19 08:56:35;;;;;;;2.50;0.57;;;;;;;21.37;68.51;96269.13;5114340;28;20035;-64
2021/06/19 08:59:01;;;;;;;1.38;0.40;;;;;;;21.40;68.51;96268.88;5114401;28;20019;-63
2021/06/19 09:01:27;;;;;;;0.30;0.30;;;;;;;21.20;66.81;96266.09;5114254;28;20106;-63
2021/06/19 09:03:52;;;;;;;1.00;0.20;;;;;;;21.29;67.65;96269.81;5114257;28;20054;-61
2021/06/19 09:06:27;;;;;;;0.90;0.30;;;;;;;21.38;68.61;96272.66;5114235;28;20076;-62
2021/06/19 09:09:01;;;;;;;0.30;0.30;;;;;;;21.39;67.43;96269.84;5114227;28;20028;-60
2021/06/19 09:11:44;;;;;;;2.72;0.47;;;;;;;21.33;68.21;96273.91;5114123;28;20019;-64
2021/06/19 09:14:14;;;;;;;0.30;0.25;;;;;;;21.36;67.04;96264.81;5114234;28;20038;-62
2021/06/19 09:16:41;;;;;;;0.30;0.30;;;;;;;21.52;67.17;96266.16;5113867;28;20455;-61
2021/06/19 09:19:28;;;;;;;0.30;0.30;;;;;;;21.74;67.33;96264.25;5114049;28;20408;-64
2021/06/19 09:22:20;;;;;;;0.10;0.10;;;;;;;21.94;66.31;96263.34;5113932;28;20040;-62
2021/06/19 09:24:50;;;;;;;3.85;0.47;;;;;;;22.08;65.28;96263.94;5114083;28;20133;-64
2021/06/19 09:27:38;;;;;;;0.20;0.20;;;;;;;22.02;64.62;96265.34;5113931;28;20031;-63
2021/06/19 09:30:15;;;;;;;1.17;0.20;;;;;;;22.03;64.16;96260.88;5113779;28;20043;-61
2021/06/19 09:32:42;;;;;;;0.40;0.20;;;;;;;22.09;64.73;96265.63;5113835;28;20032;-63
2021/06/19 09:35:14;;;;;;;0.15;0.15;;;;;;;22.17;64.57;96263.13;5113778;28;20024;-61
2021/06/19 09:37:41;;;;;;;0.20;0.20;;;;;;;22.32;64.17;96260.03;5113784;28;20024;-63
2021/06/19 09:40:34;;;;;;;1.48;0.30;;;;;;;22.45;63.85;96255.28;5113639;28;20107;-64
2021/06/19 09:43:18;;;;;;;0.20;0.20;;;;;;;22.54;63.08;96258.06;5113515;28;20055;-63
2021/06/19 09:46:09;;;;;;;0.40;0.20;;;;;;;22.41;62.12;96253.03;5113859;28;20034;-61
2021/06/19 09:48:38;;;;;;;1.23;0.32;;;;;;;22.38;62.32;96247.97;5113568;28;20083;-62
2021/06/19 09:51:17;;;;;;;0.20;0.20;;;;;;;22.34;63.25;96258.09;5113638;28;20507;-62
2021/06/19 09:53:49;;;;;;;0.20;0.20;;;;;;;22.28;62.27;96246.19;5113543;28;20031;-62
2021/06/19 09:56:19;;;;;;;3.60;0.50;;;;;;;22.17;62.60;96249.81;5113478;28;20028;-63
2021/06/19 09:58:46;;;;;;;0.75;0.32;;;;;;;22.08;62.82;96247.97;5113630;28;20047;-64
2021/06/19 10:01:20;;;;;;;1.38;0.30;;;;;;;22.12;63.49;96244.03;5113337;28;20032;-62
2021/06/19 10:03:49;;;;;;;0.82;0.50;;;;;;;22.24;62.71;96242.09;5113601;28;20031;-62
2021/06/19 10:06:14;;;;;;;0.80;0.40;;;;;;;22.10;63.54;96246.03;5113409;28;20020;-63
2021/06/19 10:08:43;;;;;;;1.27;0.50;;;;;;;22.06;63.76;96249.91;5113390;28;20038;-62
2021/06/19 10:11:09;;;;;;;1.30;0.50;;;;;;;22.19;63.55;96241.69;5113354;28;20024;-63
2021/06/19 10:13:35;;;;;;;1.58;0.70;;;;;;;22.27;62.97;96238.31;5113538;28;20031;-64
2021/06/19 10:16:01;;;;;;;0.52;0.40;;;;;;;22.28;61.99;96230.19;5113223;28;20044;-64
2021/06/19 10:18:27;;;;;;;0.55;0.40;;;;;;;22.43;62.27;96227.09;5113197;28;20015;-61
2021/06/19 10:20:52;;;;;;;2.47;0.65;;;;;;;22.48;63.39;96222.19;5113303;28;20057;-64
2021/06/19 10:23:18;;;;;;;1.60;0.40;;;;;;;22.47;60.72;96217.84;5113316;28;20020;-61
2021/06/19 10:25:46;;;;;;;0.43;0.43;;;;;;;22.46;62.35;96221.50;5113319;28;20103;-63
2021/06/19 10:28:15;;;;;;;4.32;0.40;;;;;;;22.43;61.70;96216.44;5113149;28;20500;-61
2021/06/19 10:30:42;;;;;;;0.38;0.38;;;;;;;22.49;62.00;96217.72;5113195;28;20525;-64
2021/06/19 10:33:28;;;;;;;4.03;0.40;;;;;;;22.39;62.16;96215.06;5113114;28;20427;-65
2021/06/19 10:35:55;;;;;;;0.85;0.52;;;;;;;22.25;63.56;96216.31;5113244;28;20025;-61
2021/06/19 10:38:21;;;;;;;0.40;0.40;;;;;;;22.21;62.95;96216.59;5113220;28;20488;-64
2021/06/19 10:40:58;;;;;;;0.75;0.25;;;;;;;22.12;61.24;96209.41;5113160;28;20016;-64
2021/06/19 10:43:26;;;;;;;6.22;0.38;;;;;;;22.18;62.77;96210.69;5113014;28;20102;-62
2021/06/19 10:45:52;;;;;;;2.28;0.32;;;;;;;22.32;63.74;96217.44;5113206;28;20020;-63
2021/06/19 10:48:20;;;;;;;0.30;0.30;;;;;;;22.32;63.09;96218.28;5095000;28;20072;-62
2021/06/19 10:50:49;;;;;;;0.60;0.40;;;;;;;22.50;63.50;96211.38;5113048;28;20035;-64
2021/06/19 10:53:22;;;;;;;0.40;0.40;;;;;;;22.49;61.87;96207.03;5112982;28;20431;-64
2021/06/19 10:55:53;;;;;;;1.27;0.40;;;;;;;22.46;62.93;96214.31;5114674;28;20032;-63
2021/06/19 10:58:23;;;;;;;0.52;0.50;;;;;;;22.19;62.12;96205.22;5116741;28;20031;-64
2021/06/19 11:00:59;;;;;;;1.85;0.43;;;;;;;22.15;61.24;96198.50;5116674;28;20035;-61
2021/06/19 11:03:49;;;;;;;1.52;0.55;;;;;;;22.06;63.06;96199.31;5116675;28;20427;-65
2021/06/19 11:06:24;;;;;;;1.75;0.75;;;;;;;22.24;63.19;96196.00;5116642;28;20031;-64
2021/06/19 11:09:05;;;;;;;1.27;0.70;;;;;;;22.19;64.01;96185.75;5116477;28;20020;-63
2021/06/19 11:11:50;;;;;;;2.20;0.55;;;;;;;22.52;62.66;96185.44;5116565;28;20036;-64
2021/06/19 11:17:06;;;;;;;1.88;0.65;;;;;;;22.85;59.96;96181.47;5116263;28;20055;-63
2021/06/19 11:19:36;;;;;;;4.57;0.68;;;;;;;22.70;61.35;96177.59;5116538;28;20034;-65
2021/06/19 11:22:23;;;;;;;4.13;0.50;;;;;;;22.75;61.89;96186.00;5116164;28;20084;-64
2021/06/19 11:25:14;;;;;;;3.15;0.70;;;;;;;22.79;60.88;96175.91;5116148;28;20028;-64
2021/06/19 11:27:50;;;;;;;1.70;0.57;;;;;;;22.82;60.75;96181.75;5116262;28;20028;-63
2021/06/19 11:30:37;;;;;;;3.80;0.50;;;;;;;22.77;59.35;96189.38;5116166;28;20016;-64
2021/06/19 11:33:21;;;;;;;0.60;0.60;;;;;;;22.62;59.09;96182.78;5115998;28;20560;-64
2021/06/19 11:35:48;;;;;;;3.22;0.50;;;;;;;22.35;59.81;96187.84;5115905;28;20106;-65
2021/06/19 11:38:15;;;;;;;2.65;0.80;;;;;;;22.43;60.58;96181.81;5115955;28;20028;-62